createdAt,value
2022-07-29T00:00:30.000Z,156
2022-07-29T00:01:46.000Z,159
2022-07-29T00:03:02.000Z,159
2022-07-29T00:04:19.000Z,156
2022-07-29T00:05:35.000Z,159
2022-07-29T00:06:51.000Z,160
2022-07-29T00:08:07.000Z,157
2022-07-29T00:09:23.000Z,160
2022-07-29T00:10:38.000Z,160
2022-07-29T00:11:54.000Z,159
2022-07-29T00:13:09.000Z,158
2022-07-29T00:14:25.000Z,158
2022-07-29T00:15:41.000Z,160
2022-07-29T00:16:57.000Z,160
2022-07-29T00:18:13.000Z,160
2022-07-29T00:19:29.000Z,157
2022-07-29T00:20:46.000Z,156
2022-07-29T00:22:02.000Z,160
2022-07-29T00:23:18.000Z,160
2022-07-29T00:24:34.000Z,160
2022-07-29T00:25:51.000Z,160
2022-07-29T00:27:07.000Z,160
2022-07-29T00:28:23.000Z,157
2022-07-29T00:29:39.000Z,158
2022-07-29T00:30:55.000Z,160
2022-07-29T00:32:11.000Z,158
2022-07-29T00:33:27.000Z,157
2022-07-29T00:34:43.000Z,156
2022-07-29T00:36:00.000Z,159
2022-07-29T00:37:16.000Z,160
2022-07-29T00:38:32.000Z,160
2022-07-29T00:39:47.000Z,160
2022-07-29T00:41:02.000Z,160
2022-07-29T00:42:18.000Z,157
2022-07-29T00:43:33.000Z,160
2022-07-29T00:44:49.000Z,159
2022-07-29T00:46:05.000Z,160
2022-07-29T00:47:22.000Z,160
2022-07-29T00:48:38.000Z,160
2022-07-29T00:49:54.000Z,157
2022-07-29T00:51:10.000Z,160
2022-07-29T00:52:27.000Z,157
2022-07-29T00:53:43.000Z,157
2022-07-29T00:54:59.000Z,159
2022-07-29T00:56:15.000Z,158
2022-07-29T00:57:32.000Z,161
2022-07-29T00:58:48.000Z,159
2022-07-29T01:00:03.000Z,160
2022-07-29T01:01:19.000Z,160
2022-07-29T01:02:36.000Z,160
2022-07-29T01:03:52.000Z,160
2022-07-29T01:05:08.000Z,160
2022-07-29T01:06:24.000Z,160
2022-07-29T01:07:40.000Z,160
2022-07-29T01:08:56.000Z,160
2022-07-29T01:10:11.000Z,159
2022-07-29T01:11:27.000Z,158
2022-07-29T01:12:43.000Z,160
2022-07-29T01:13:59.000Z,157
2022-07-29T01:15:14.000Z,158
2022-07-29T01:16:30.000Z,160
2022-07-29T01:17:46.000Z,157
2022-07-29T01:19:03.000Z,157
2022-07-29T01:20:19.000Z,160
2022-07-29T01:21:35.000Z,160
2022-07-29T01:22:51.000Z,155
2022-07-29T01:24:08.000Z,157
2022-07-29T01:25:24.000Z,161
2022-07-29T01:26:40.000Z,160
2022-07-29T01:27:56.000Z,159
2022-07-29T01:29:13.000Z,156
2022-07-29T01:30:29.000Z,158
2022-07-29T01:31:44.000Z,159
2022-07-29T01:33:00.000Z,160
2022-07-29T01:34:16.000Z,160
2022-07-29T01:35:33.000Z,156
2022-07-29T01:36:49.000Z,157
2022-07-29T01:38:05.000Z,161
2022-07-29T01:39:21.000Z,160
2022-07-29T01:40:38.000Z,159
2022-07-29T01:41:53.000Z,157
2022-07-29T01:43:08.000Z,157
2022-07-29T01:44:23.000Z,157
2022-07-29T01:45:39.000Z,156
2022-07-29T01:46:55.000Z,158
2022-07-29T01:48:11.000Z,157
2022-07-29T01:49:27.000Z,156
2022-07-29T01:50:44.000Z,157
2022-07-29T01:52:00.000Z,159
2022-07-29T01:53:16.000Z,157
2022-07-29T01:54:32.000Z,157
2022-07-29T01:55:49.000Z,159
2022-07-29T01:57:05.000Z,158
2022-07-29T01:58:21.000Z,158
2022-07-29T01:59:37.000Z,158
2022-07-29T02:00:53.000Z,160
2022-07-29T02:02:09.000Z,159
2022-07-29T02:03:25.000Z,157
2022-07-29T02:04:41.000Z,158
2022-07-29T02:05:57.000Z,160
2022-07-29T02:07:14.000Z,156
2022-07-29T02:08:30.000Z,156
2022-07-29T02:09:46.000Z,158
2022-07-29T02:11:01.000Z,160
2022-07-29T02:12:17.000Z,161
2022-07-29T02:13:33.000Z,160
2022-07-29T02:14:48.000Z,159
2022-07-29T02:16:03.000Z,160
2022-07-29T02:17:20.000Z,158
2022-07-29T02:18:36.000Z,156
2022-07-29T02:19:52.000Z,160
2022-07-29T02:21:08.000Z,160
2022-07-29T02:22:25.000Z,160
2022-07-29T02:23:41.000Z,160
2022-07-29T02:24:57.000Z,160
2022-07-29T02:26:13.000Z,159
2022-07-29T02:27:29.000Z,160
2022-07-29T02:28:46.000Z,161
2022-07-29T02:30:02.000Z,159
2022-07-29T02:31:18.000Z,157
2022-07-29T02:32:33.000Z,156
2022-07-29T02:33:50.000Z,158
2022-07-29T02:35:06.000Z,160
2022-07-29T02:36:22.000Z,160
2022-07-29T02:37:38.000Z,161
2022-07-29T02:38:55.000Z,159
2022-07-29T02:40:11.000Z,157
2022-07-29T02:41:26.000Z,158
2022-07-29T02:42:41.000Z,158
2022-07-29T02:43:58.000Z,160
2022-07-29T02:45:13.000Z,157
2022-07-29T02:46:28.000Z,158
2022-07-29T02:47:44.835Z,160
2022-07-29T02:49:01.000Z,160
2022-07-29T02:50:17.000Z,160
2022-07-29T02:51:33.000Z,158
2022-07-29T02:52:49.000Z,156
2022-07-29T02:55:22.000Z,157
2022-07-29T02:56:38.000Z,159
2022-07-29T02:57:54.000Z,156
2022-07-29T02:59:10.000Z,158
2022-07-29T03:00:27.000Z,159
2022-07-29T03:01:43.000Z,158
2022-07-29T03:02:58.000Z,158
2022-07-29T03:04:14.000Z,160
2022-07-29T03:05:31.000Z,157
2022-07-29T03:06:47.000Z,161
2022-07-29T03:08:03.000Z,160
2022-07-29T03:09:19.000Z,158
2022-07-29T03:10:36.000Z,161
2022-07-29T03:11:52.000Z,161
2022-07-29T03:13:08.000Z,161
2022-07-29T03:14:24.000Z,160
2022-07-29T03:15:41.000Z,161
2022-07-29T03:16:57.000Z,163
2022-07-29T03:18:13.000Z,161
2022-07-29T03:19:28.000Z,163
2022-07-29T03:20:44.000Z,163
2022-07-29T03:22:01.000Z,169
2022-07-29T03:23:17.000Z,169
2022-07-29T03:24:33.000Z,172
2022-07-29T03:25:49.000Z,174
2022-07-29T03:27:05.000Z,173
2022-07-29T03:28:20.000Z,178
2022-07-29T03:29:36.000Z,141
2022-07-29T03:30:52.000Z,22
2022-07-29T03:32:09.000Z,23
2022-07-29T03:33:24.000Z,27
2022-07-29T03:34:39.000Z,30
2022-07-29T03:35:55.000Z,35
2022-07-29T03:37:12.000Z,38
2022-07-29T03:38:28.000Z,44
2022-07-29T03:39:44.000Z,53
2022-07-29T03:41:00.000Z,63
2022-07-29T03:42:17.000Z,69
2022-07-29T03:43:33.000Z,78
2022-07-29T03:44:49.000Z,87
2022-07-29T03:46:05.000Z,97
2022-07-29T03:47:21.000Z,107
2022-07-29T03:48:38.000Z,119
2022-07-29T03:49:54.000Z,129
2022-07-29T03:51:09.000Z,141
2022-07-29T03:52:25.000Z,151
2022-07-29T03:53:42.000Z,163
2022-07-29T03:54:58.000Z,177
2022-07-29T03:56:14.000Z,192
2022-07-29T03:57:30.000Z,204
2022-07-29T03:58:47.000Z,217
2022-07-29T04:00:02.000Z,231
2022-07-29T04:01:17.000Z,243
2022-07-29T04:02:33.000Z,259
2022-07-29T04:03:50.000Z,265
2022-07-29T04:05:05.000Z,270
2022-07-29T04:06:20.000Z,272
2022-07-29T04:07:36.000Z,283
2022-07-29T04:08:53.000Z,290
2022-07-29T04:10:09.000Z,294
2022-07-29T04:11:25.000Z,297
2022-07-29T04:12:41.000Z,303
2022-07-29T04:13:57.000Z,314
2022-07-29T04:15:14.000Z,327
2022-07-29T04:16:30.000Z,344
2022-07-29T04:17:46.000Z,370
2022-07-29T04:19:02.000Z,405
2022-07-29T04:20:19.000Z,444
2022-07-29T04:21:35.000Z,484
2022-07-29T04:22:50.000Z,543
2022-07-29T04:24:06.000Z,593
2022-07-29T04:25:23.000Z,642
2022-07-29T04:26:39.000Z,700
2022-07-29T04:27:55.000Z,759
2022-07-29T04:29:11.000Z,820
2022-07-29T04:30:28.000Z,888
2022-07-29T04:31:43.000Z,967
2022-07-29T04:32:58.000Z,1054
2022-07-29T04:34:13.000Z,1140
2022-07-29T04:35:29.000Z,1233
2022-07-29T04:36:45.000Z,1327
2022-07-29T04:38:01.000Z,1419
2022-07-29T04:39:17.000Z,1518
2022-07-29T04:40:33.000Z,1619
2022-07-29T04:41:50.000Z,1724
2022-07-29T04:43:06.000Z,1820
2022-07-29T04:44:22.000Z,1911
2022-07-29T04:45:37.000Z,2002
2022-07-29T04:46:54.000Z,2070
2022-07-29T04:48:10.000Z,2141
2022-07-29T04:49:26.000Z,2194
2022-07-29T04:50:42.000Z,2229
2022-07-29T04:51:59.000Z,2250
2022-07-29T04:53:15.000Z,2266
2022-07-29T04:54:31.000Z,2282
2022-07-29T04:55:47.000Z,2295
2022-07-29T04:57:04.000Z,2291
2022-07-29T04:58:20.000Z,2292
2022-07-29T04:59:36.000Z,2309
2022-07-29T05:00:51.000Z,2341
2022-07-29T05:02:07.000Z,2374
2022-07-29T05:03:23.000Z,2409
2022-07-29T05:04:39.000Z,2435
2022-07-29T05:05:54.000Z,2460
2022-07-29T05:07:10.000Z,2465
2022-07-29T05:08:26.000Z,2498
2022-07-29T05:09:42.000Z,2504
2022-07-29T05:10:58.000Z,2514
2022-07-29T05:12:14.000Z,2505
2022-07-29T05:13:31.000Z,2495
2022-07-29T05:14:47.000Z,2464
2022-07-29T05:16:03.000Z,2438
2022-07-29T05:17:19.000Z,2429
2022-07-29T05:18:36.000Z,2422
2022-07-29T05:19:52.000Z,2422
2022-07-29T05:21:08.000Z,2428
2022-07-29T05:22:24.000Z,2446
2022-07-29T05:23:40.000Z,2488
2022-07-29T05:24:56.000Z,2537
2022-07-29T05:26:12.000Z,2564
2022-07-29T05:27:28.000Z,2564
2022-07-29T05:28:44.000Z,2541
2022-07-29T05:30:01.000Z,2514
2022-07-29T05:31:17.000Z,2477
2022-07-29T05:32:32.000Z,2455
2022-07-29T05:33:47.000Z,2452
2022-07-29T05:35:03.000Z,2435
2022-07-29T05:36:18.000Z,2391
2022-07-29T05:37:34.000Z,2324
2022-07-29T05:38:50.000Z,2263
2022-07-29T05:40:07.000Z,2211
2022-07-29T05:41:23.000Z,2160
2022-07-29T05:42:39.000Z,2131
2022-07-29T05:43:55.000Z,2140
2022-07-29T05:45:12.000Z,2148
2022-07-29T05:46:28.000Z,2153
2022-07-29T05:47:44.000Z,2134
2022-07-29T05:49:00.000Z,2109
2022-07-29T05:50:17.000Z,2105
2022-07-29T05:51:33.000Z,2158
2022-07-29T05:52:48.000Z,2266
2022-07-29T05:54:04.000Z,2400
2022-07-29T05:55:20.000Z,2494
2022-07-29T05:56:37.000Z,2606
2022-07-29T05:57:53.000Z,2726
2022-07-29T05:59:09.000Z,2946
2022-07-29T06:00:25.000Z,3207
2022-07-29T06:01:42.000Z,3556
2022-07-29T06:02:58.000Z,3918
2022-07-29T06:04:14.000Z,4196
2022-07-29T06:05:30.000Z,4345
2022-07-29T06:06:47.000Z,4446
2022-07-29T06:08:03.000Z,4683
2022-07-29T06:09:18.000Z,4802
2022-07-29T06:10:34.000Z,4838
2022-07-29T06:11:50.000Z,5090
2022-07-29T06:13:05.000Z,5390
2022-07-29T06:14:21.000Z,5820
2022-07-29T06:15:37.000Z,6053
2022-07-29T06:16:54.000Z,6173
2022-07-29T06:18:09.000Z,6069
2022-07-29T06:19:24.000Z,5951
2022-07-29T06:20:40.000Z,5805
2022-07-29T06:21:57.000Z,5606
2022-07-29T06:23:13.000Z,5474
2022-07-29T06:24:29.000Z,5273
2022-07-29T06:25:45.000Z,5295
2022-07-29T06:27:01.000Z,4997
2022-07-29T06:28:18.000Z,4803
2022-07-29T06:29:34.000Z,4609
2022-07-29T06:30:50.000Z,4360
2022-07-29T06:32:06.000Z,4205
2022-07-29T06:33:23.000Z,4098
2022-07-29T06:34:39.000Z,4041
2022-07-29T06:35:54.000Z,4029
2022-07-29T06:37:10.000Z,4022
2022-07-29T06:38:27.000Z,4049
2022-07-29T06:39:43.000Z,4080
2022-07-29T06:40:59.000Z,4073
2022-07-29T06:42:15.000Z,4041
2022-07-29T06:43:31.000Z,4006
2022-07-29T06:44:47.000Z,3989
2022-07-29T06:46:02.000Z,4028
2022-07-29T06:47:17.000Z,4188
2022-07-29T06:48:33.000Z,4370
2022-07-29T06:49:49.000Z,4480
2022-07-29T06:51:05.000Z,4482
2022-07-29T06:52:21.000Z,4410
2022-07-29T06:53:37.000Z,4251
2022-07-29T06:54:54.000Z,4174
2022-07-29T06:56:10.000Z,4245
2022-07-29T06:57:26.000Z,4336
2022-07-29T06:58:42.000Z,4381
2022-07-29T06:59:59.000Z,4393
2022-07-29T07:01:15.000Z,4388
2022-07-29T07:02:31.000Z,4401
2022-07-29T07:03:47.000Z,4410
2022-07-29T07:05:03.000Z,4432
2022-07-29T07:06:19.000Z,4488
2022-07-29T07:07:35.000Z,4625
2022-07-29T07:08:51.000Z,4838
2022-07-29T07:10:08.000Z,5098
2022-07-29T07:11:24.000Z,5332
2022-07-29T07:12:40.000Z,5581
2022-07-29T07:13:55.000Z,5891
2022-07-29T07:15:10.000Z,6223
2022-07-29T07:16:27.000Z,6588
2022-07-29T07:17:43.000Z,6956
2022-07-29T07:18:59.000Z,7141
2022-07-29T07:20:15.000Z,7129
2022-07-29T07:21:32.000Z,7095
2022-07-29T07:22:48.000Z,7147
2022-07-29T07:24:04.000Z,7255
2022-07-29T07:25:20.000Z,7399
2022-07-29T07:26:37.000Z,7438
2022-07-29T07:27:53.000Z,7408
2022-07-29T07:29:09.000Z,7398
2022-07-29T07:30:25.000Z,7429
2022-07-29T07:31:41.000Z,7405
2022-07-29T07:32:57.000Z,7359
2022-07-29T07:34:13.000Z,7307
2022-07-29T07:35:29.000Z,7166
2022-07-29T07:36:45.000Z,6979
2022-07-29T07:38:02.000Z,6807
2022-07-29T07:39:18.000Z,6691
2022-07-29T07:40:33.000Z,6606
2022-07-29T07:41:48.000Z,6493
2022-07-29T07:43:05.000Z,6315
2022-07-29T07:44:20.000Z,6159
2022-07-29T07:45:35.000Z,5823
2022-07-29T07:46:51.000Z,5636
2022-07-29T07:48:08.000Z,5643
2022-07-29T07:49:24.000Z,5675
2022-07-29T07:50:39.000Z,5603
2022-07-29T07:51:54.000Z,5395
2022-07-29T07:53:11.000Z,5100
2022-07-29T07:54:27.000Z,4883
2022-07-29T07:55:43.000Z,4905
2022-07-29T07:56:59.000Z,5209
2022-07-29T07:58:16.000Z,5427
2022-07-29T07:59:32.000Z,5470
2022-07-29T08:00:48.000Z,5341
2022-07-29T08:02:04.000Z,5344
2022-07-29T08:03:21.000Z,5516
2022-07-29T08:04:37.000Z,5800
2022-07-29T08:05:53.000Z,6077
2022-07-29T08:07:09.000Z,6425
2022-07-29T08:08:24.000Z,7002
2022-07-29T08:09:41.000Z,7538
2022-07-29T08:10:57.000Z,8000
2022-07-29T08:12:13.000Z,8598
2022-07-29T08:13:29.000Z,9166
2022-07-29T08:14:46.000Z,9526
2022-07-29T08:16:02.000Z,9988
2022-07-29T08:17:18.000Z,10398
2022-07-29T08:18:33.000Z,10834
2022-07-29T08:19:49.000Z,11430
2022-07-29T08:21:05.000Z,11865
2022-07-29T08:22:21.000Z,11929
2022-07-29T08:23:37.000Z,11977
2022-07-29T08:24:54.000Z,12014
2022-07-29T08:26:10.000Z,12178
2022-07-29T08:27:25.000Z,12309
2022-07-29T08:28:40.000Z,11877
2022-07-29T08:29:57.000Z,11720
2022-07-29T08:31:13.000Z,11363
2022-07-29T08:32:29.000Z,11805
2022-07-29T08:33:45.000Z,11503
2022-07-29T08:35:01.000Z,11184
2022-07-29T08:36:18.000Z,10860
2022-07-29T08:37:34.000Z,10386
2022-07-29T08:38:50.000Z,9867
2022-07-29T08:40:06.000Z,9486
2022-07-29T08:41:23.000Z,9279
2022-07-29T08:42:39.000Z,8886
2022-07-29T08:43:55.000Z,8283
2022-07-29T08:45:10.000Z,7648
2022-07-29T08:46:27.000Z,7354
2022-07-29T08:47:43.000Z,7154
2022-07-29T08:48:59.000Z,6916
2022-07-29T08:50:15.000Z,6647
2022-07-29T08:51:32.000Z,6415
2022-07-29T08:52:48.000Z,5959
2022-07-29T08:54:03.000Z,5279
2022-07-29T08:55:18.000Z,4711
2022-07-29T08:56:34.000Z,4351
2022-07-29T08:57:49.000Z,3871
2022-07-29T08:59:05.000Z,3481
2022-07-29T09:00:20.000Z,3246
2022-07-29T09:01:37.000Z,3143
2022-07-29T09:02:53.000Z,3092
2022-07-29T09:04:09.000Z,3279
2022-07-29T09:05:25.000Z,3521
2022-07-29T09:06:41.000Z,3645
2022-07-29T09:07:58.000Z,3629
2022-07-29T09:09:14.000Z,3237
2022-07-29T09:10:30.000Z,2818
2022-07-29T09:11:46.000Z,2664
2022-07-29T09:13:03.000Z,2761
2022-07-29T09:14:19.000Z,2948
2022-07-29T09:15:35.000Z,3088
2022-07-29T09:16:50.000Z,3001
2022-07-29T09:18:07.000Z,2742
2022-07-29T09:19:23.000Z,2525
2022-07-29T09:20:39.000Z,2460
2022-07-29T09:21:55.000Z,2527
2022-07-29T09:23:11.000Z,2634
2022-07-29T09:24:26.000Z,2748
2022-07-29T09:25:42.000Z,2829
2022-07-29T09:26:58.000Z,2957
2022-07-29T09:28:14.000Z,3065
2022-07-29T09:29:31.000Z,3397
2022-07-29T09:30:46.000Z,3907
2022-07-29T09:32:01.000Z,4180
2022-07-29T09:33:17.000Z,4241
2022-07-29T09:34:34.000Z,4256
2022-07-29T09:35:50.000Z,4616
2022-07-29T09:37:06.000Z,5341
2022-07-29T09:38:22.000Z,5728
2022-07-29T09:39:39.000Z,5944
2022-07-29T09:40:55.000Z,5901
2022-07-29T09:42:11.000Z,5879
2022-07-29T09:43:27.000Z,5875
2022-07-29T09:44:44.000Z,6010
2022-07-29T09:46:00.000Z,5918
2022-07-29T09:47:16.000Z,6053
2022-07-29T09:48:31.000Z,6360
2022-07-29T09:49:48.000Z,6481
2022-07-29T09:51:04.000Z,6400
2022-07-29T09:52:20.000Z,5986
2022-07-29T09:53:36.000Z,5584
2022-07-29T09:54:52.000Z,5389
2022-07-29T09:56:09.000Z,5335
2022-07-29T09:57:24.000Z,5381
2022-07-29T09:58:39.000Z,5469
2022-07-29T09:59:54.000Z,5657
2022-07-29T10:01:11.000Z,5864
2022-07-29T10:02:27.000Z,6101
2022-07-29T10:03:42.000Z,6229
2022-07-29T10:04:58.000Z,6389
2022-07-29T10:06:15.000Z,6895
2022-07-29T10:07:31.000Z,7618
2022-07-29T10:08:47.000Z,7847
2022-07-29T10:10:03.000Z,8058
2022-07-29T10:11:20.000Z,8575
2022-07-29T10:12:36.000Z,8799
2022-07-29T10:13:52.000Z,8557
2022-07-29T10:15:08.000Z,8884
2022-07-29T10:16:25.000Z,9058
2022-07-29T10:17:41.000Z,9519
2022-07-29T10:18:57.000Z,9917
2022-07-29T10:20:12.000Z,10358
2022-07-29T10:21:28.000Z,10711
2022-07-29T10:22:45.000Z,10764
2022-07-29T10:24:01.000Z,10567
2022-07-29T10:25:17.000Z,10343
2022-07-29T10:26:33.000Z,10332
2022-07-29T10:27:50.000Z,10490
2022-07-29T10:29:06.000Z,10885
2022-07-29T10:30:22.000Z,11328
2022-07-29T10:31:38.000Z,11474
2022-07-29T10:32:55.000Z,11439
2022-07-29T10:34:11.000Z,11191
2022-07-29T10:35:27.000Z,10529
2022-07-29T10:36:42.000Z,9778
2022-07-29T10:37:58.000Z,9476
2022-07-29T10:39:14.000Z,9148
2022-07-29T10:40:30.000Z,8510
2022-07-29T10:41:46.000Z,7968
2022-07-29T10:43:02.000Z,7431
2022-07-29T10:44:18.000Z,6986
2022-07-29T10:45:33.000Z,7081
2022-07-29T10:46:49.000Z,7314
2022-07-29T10:48:05.000Z,7311
2022-07-29T10:49:22.000Z,7305
2022-07-29T10:50:38.000Z,7288
2022-07-29T10:51:54.000Z,7681
2022-07-29T10:53:10.000Z,7880
2022-07-29T10:54:27.000Z,8154
2022-07-29T10:55:43.000Z,8286
2022-07-29T10:56:59.000Z,8193
2022-07-29T10:58:15.000Z,8164
2022-07-29T10:59:32.000Z,8222
2022-07-29T11:00:48.000Z,8435
2022-07-29T11:02:03.000Z,8724
2022-07-29T11:03:19.000Z,9046
2022-07-29T11:04:36.000Z,9282
2022-07-29T11:05:52.000Z,9325
2022-07-29T11:07:08.000Z,9107
2022-07-29T11:08:24.000Z,8657
2022-07-29T11:09:40.000Z,8187
2022-07-29T11:10:57.000Z,7723
2022-07-29T11:12:13.000Z,7314
2022-07-29T11:13:29.000Z,7030
2022-07-29T11:14:45.000Z,6894
2022-07-29T11:16:02.000Z,6830
2022-07-29T11:17:18.000Z,6803
2022-07-29T11:18:33.000Z,6675
2022-07-29T11:19:49.000Z,6466
2022-07-29T11:21:06.000Z,6346
2022-07-29T11:22:22.000Z,6259
2022-07-29T11:23:38.000Z,6236
2022-07-29T11:24:54.000Z,6200
2022-07-29T11:26:10.000Z,6141
2022-07-29T11:27:25.000Z,6154
2022-07-29T11:28:40.000Z,6229
2022-07-29T11:29:55.000Z,6454
2022-07-29T11:31:12.000Z,6756
2022-07-29T11:32:28.000Z,7086
2022-07-29T11:33:44.000Z,7505
2022-07-29T11:35:00.000Z,7876
2022-07-29T11:36:16.000Z,8116
2022-07-29T11:37:33.000Z,8166
2022-07-29T11:38:49.000Z,8009
2022-07-29T11:40:05.000Z,7850
2022-07-29T11:41:21.000Z,7577
2022-07-29T11:42:38.000Z,7258
2022-07-29T11:43:54.000Z,6847
2022-07-29T11:45:10.000Z,6537
2022-07-29T11:46:25.000Z,6347
2022-07-29T11:47:42.000Z,6026
2022-07-29T11:48:58.000Z,5713
2022-07-29T11:50:14.000Z,5494
2022-07-29T11:51:30.000Z,5238
2022-07-29T11:52:47.000Z,5069
2022-07-29T11:54:03.000Z,4833
2022-07-29T11:55:18.000Z,4761
2022-07-29T11:56:33.000Z,4890
2022-07-29T11:57:50.000Z,4987
2022-07-29T11:59:06.000Z,5063
2022-07-29T12:00:21.000Z,5083
2022-07-29T12:01:36.000Z,4740
2022-07-29T12:02:52.000Z,4593
2022-07-29T12:04:09.000Z,4143
2022-07-29T12:05:25.000Z,3930
2022-07-29T12:06:41.000Z,3630
2022-07-29T12:07:57.000Z,3584
2022-07-29T12:09:14.000Z,3686
2022-07-29T12:10:30.000Z,3812
2022-07-29T12:11:46.000Z,3979
2022-07-29T12:13:02.000Z,4274
2022-07-29T12:14:19.000Z,4804
2022-07-29T12:15:35.000Z,5175
2022-07-29T12:16:51.000Z,6017
2022-07-29T12:18:06.000Z,6654
2022-07-29T12:19:23.000Z,7006
2022-07-29T12:20:39.000Z,7623
2022-07-29T12:21:55.000Z,8211
2022-07-29T12:23:11.000Z,9259
2022-07-29T12:24:27.000Z,9900
2022-07-29T12:25:44.000Z,10133
2022-07-29T12:26:59.000Z,10123
2022-07-29T12:28:14.000Z,9929
2022-07-29T12:29:29.000Z,9775
2022-07-29T12:30:45.000Z,9356
2022-07-29T12:32:01.000Z,8638
2022-07-29T12:33:17.000Z,8053
2022-07-29T12:34:33.000Z,7811
2022-07-29T12:35:50.000Z,7770
2022-07-29T12:37:06.000Z,7894
2022-07-29T12:38:22.000Z,7891
2022-07-29T12:39:38.000Z,7847
2022-07-29T12:40:55.000Z,7990
2022-07-29T12:42:11.000Z,8089
2022-07-29T12:43:27.000Z,8155
2022-07-29T12:44:43.000Z,8002
2022-07-29T12:46:00.000Z,8011
2022-07-29T12:47:15.000Z,7868
2022-07-29T12:48:31.000Z,7752
2022-07-29T12:49:47.000Z,7731
2022-07-29T12:51:03.000Z,7644
2022-07-29T12:52:20.000Z,7721
2022-07-29T12:53:36.000Z,8079
2022-07-29T12:54:52.000Z,8201
2022-07-29T12:56:07.000Z,8552
2022-07-29T12:57:23.000Z,8984
2022-07-29T12:58:39.000Z,9352
2022-07-29T12:59:55.000Z,10182
2022-07-29T13:01:10.000Z,10722
2022-07-29T13:02:26.000Z,12021
2022-07-29T13:03:42.000Z,12752
2022-07-29T13:04:58.000Z,13167
2022-07-29T13:06:14.000Z,13287
2022-07-29T13:07:31.000Z,14217
2022-07-29T13:08:47.000Z,14894
2022-07-29T13:10:03.000Z,15956
2022-07-29T13:11:19.000Z,16750
2022-07-29T13:12:36.000Z,16470
2022-07-29T13:13:52.000Z,15960
2022-07-29T13:15:07.000Z,15989
2022-07-29T13:16:23.000Z,15533
2022-07-29T13:17:40.000Z,16450
2022-07-29T13:18:56.000Z,16856
2022-07-29T13:20:12.000Z,17029
2022-07-29T13:21:28.000Z,17032
2022-07-29T13:22:44.000Z,17036
2022-07-29T13:24:01.000Z,16512
2022-07-29T13:25:17.000Z,16047
2022-07-29T13:26:33.000Z,16077
2022-07-29T13:27:48.000Z,15718
2022-07-29T13:29:04.000Z,15218
2022-07-29T13:30:20.000Z,14916
2022-07-29T13:31:35.000Z,14611
2022-07-29T13:32:50.000Z,14750
2022-07-29T13:34:07.000Z,14927
2022-07-29T13:35:23.000Z,15008
2022-07-29T13:36:39.000Z,15764
2022-07-29T13:37:55.000Z,15519
2022-07-29T13:39:12.000Z,13360
2022-07-29T13:40:28.000Z,37705
2022-07-29T13:41:44.000Z,32370
2022-07-29T13:43:00.000Z,38246
2022-07-29T13:44:17.000Z,23262
2022-07-29T13:45:33.000Z,75527
2022-07-29T13:46:49.000Z,77214
2022-07-29T13:48:05.000Z,74831
2022-07-29T13:49:20.000Z,78257
2022-07-29T13:50:37.000Z,78130
2022-07-29T13:51:53.000Z,78777
2022-07-29T13:53:09.000Z,79739
2022-07-29T13:54:25.000Z,78927
2022-07-29T13:55:42.000Z,77667
2022-07-29T13:56:58.000Z,77922
2022-07-29T13:58:14.000Z,80071
2022-07-29T13:59:30.000Z,79759
2022-07-29T14:00:47.000Z,78688
2022-07-29T14:02:03.000Z,79767
2022-07-29T14:03:19.000Z,78043
2022-07-29T14:04:35.000Z,66232
2022-07-29T14:05:51.000Z,8496
2022-07-29T14:07:07.000Z,73939
2022-07-29T14:08:23.000Z,65047
2022-07-29T14:09:39.000Z,23278
2022-07-29T14:10:55.000Z,8171
2022-07-29T14:12:12.000Z,81043
2022-07-29T14:13:27.000Z,79487
2022-07-29T14:14:42.000Z,77237
2022-07-29T14:15:58.000Z,80325
2022-07-29T14:17:14.000Z,80556
2022-07-29T14:18:29.000Z,84423
2022-07-29T14:19:45.000Z,78364
2022-07-29T14:21:01.000Z,83661
2022-07-29T14:22:18.000Z,83850
2022-07-29T14:23:34.000Z,83621
2022-07-29T14:24:50.000Z,76721
2022-07-29T14:26:06.000Z,67896
2022-07-29T14:27:23.000Z,28284
2022-07-29T14:28:39.000Z,12366
2022-07-29T14:29:55.000Z,29701
2022-07-29T14:31:11.000Z,19715
2022-07-29T14:32:28.000Z,17607
2022-07-29T14:33:44.000Z,16108
2022-07-29T14:34:59.000Z,14619
2022-07-29T14:36:15.000Z,13538
2022-07-29T14:37:31.000Z,13047
2022-07-29T14:38:48.000Z,12733
2022-07-29T14:40:04.000Z,12921
2022-07-29T14:41:20.000Z,13005
2022-07-29T14:42:36.000Z,12933
2022-07-29T14:43:53.000Z,13062
2022-07-29T14:45:09.000Z,12709
2022-07-29T14:46:25.000Z,12208
2022-07-29T14:47:41.000Z,11615
2022-07-29T14:48:58.000Z,11232
2022-07-29T14:50:14.000Z,11146
2022-07-29T14:51:29.000Z,10905
2022-07-29T14:52:45.000Z,10751
2022-07-29T14:54:02.000Z,10536
2022-07-29T14:55:18.000Z,10237
2022-07-29T14:56:34.000Z,11110
2022-07-29T14:57:50.000Z,11442
2022-07-29T14:59:06.000Z,12426
2022-07-29T15:00:23.000Z,12010
2022-07-29T15:01:38.000Z,12581
2022-07-29T15:02:53.000Z,13806
2022-07-29T15:04:08.000Z,14875
2022-07-29T15:05:24.000Z,14840
2022-07-29T15:06:40.000Z,14890
2022-07-29T15:07:56.000Z,15692
2022-07-29T15:09:12.000Z,16422
2022-07-29T15:10:29.000Z,37222
2022-07-29T15:11:45.000Z,35463
2022-07-29T15:13:01.000Z,35788
2022-07-29T15:14:17.000Z,33974
2022-07-29T15:15:34.000Z,31605
2022-07-29T15:16:50.000Z,21901
2022-07-29T15:18:06.000Z,25119
2022-07-29T15:19:22.000Z,19221
2022-07-29T15:20:39.000Z,22610
2022-07-29T15:21:54.000Z,18969
2022-07-29T15:23:10.000Z,24273
2022-07-29T15:24:26.000Z,20544
2022-07-29T15:25:42.000Z,18406
2022-07-29T15:26:59.000Z,17094
2022-07-29T15:28:15.000Z,18864
2022-07-29T15:29:31.000Z,17044
2022-07-29T15:30:47.000Z,19313
2022-07-29T15:32:04.000Z,9563
2022-07-29T15:33:20.000Z,74539
2022-07-29T15:34:36.000Z,71200
2022-07-29T15:35:52.000Z,14405
2022-07-29T15:37:09.000Z,76784
2022-07-29T15:38:24.000Z,83232
2022-07-29T15:39:40.000Z,76634
2022-07-29T15:40:56.000Z,82540
2022-07-29T15:42:12.000Z,76569
2022-07-29T15:43:27.000Z,74531
2022-07-29T15:44:43.000Z,75081
2022-07-29T15:45:59.000Z,81606
2022-07-29T15:47:15.000Z,83152
2022-07-29T15:48:30.000Z,81707
2022-07-29T15:49:46.000Z,79858
2022-07-29T15:51:02.000Z,79315
2022-07-29T15:52:19.000Z,81134
2022-07-29T15:53:35.000Z,82773
2022-07-29T15:54:51.000Z,82898
2022-07-29T15:56:07.000Z,81254
2022-07-29T15:57:23.000Z,83395
2022-07-29T15:58:40.000Z,83161
2022-07-29T15:59:56.000Z,83123
2022-07-29T16:01:12.000Z,80633
2022-07-29T16:02:28.000Z,82047
2022-07-29T16:03:45.000Z,82629
2022-07-29T16:05:00.000Z,82193
2022-07-29T16:06:16.000Z,73985
2022-07-29T16:07:32.000Z,83824
2022-07-29T16:08:49.000Z,83575
2022-07-29T16:10:05.000Z,81727
2022-07-29T16:11:21.000Z,70342
2022-07-29T16:12:37.000Z,21951
2022-07-29T16:13:53.000Z,36199
2022-07-29T16:15:08.000Z,22240
2022-07-29T16:16:24.000Z,15646
2022-07-29T16:17:39.000Z,13942
2022-07-29T16:18:55.000Z,13521
2022-07-29T16:20:11.000Z,12232
2022-07-29T16:21:27.000Z,11720
2022-07-29T16:22:43.000Z,11245
2022-07-29T16:23:59.000Z,10688
2022-07-29T16:25:16.000Z,10154
2022-07-29T16:26:32.000Z,9736
2022-07-29T16:27:48.000Z,9631
2022-07-29T16:29:04.000Z,9797
2022-07-29T16:30:21.000Z,9981
2022-07-29T16:31:37.000Z,10222
2022-07-29T16:32:53.000Z,10235
2022-07-29T16:34:09.000Z,10204
2022-07-29T16:35:25.000Z,9948
2022-07-29T16:36:41.000Z,9617
2022-07-29T16:37:57.000Z,9176
2022-07-29T16:39:13.000Z,8720
2022-07-29T16:40:30.000Z,8488
2022-07-29T16:41:46.000Z,8295
2022-07-29T16:43:02.000Z,8137
2022-07-29T16:44:18.000Z,7892
2022-07-29T16:45:34.000Z,7604
2022-07-29T16:46:51.000Z,7397
2022-07-29T16:48:07.000Z,7302
2022-07-29T16:49:23.000Z,5876
2022-07-29T16:50:38.000Z,10072
2022-07-29T16:51:54.000Z,7639
2022-07-29T16:53:10.000Z,7877
2022-07-29T16:54:26.000Z,7774